Boston, Massachusetts
Traffic Map
Current Weather Conditions
Boston, Massachusetts
Clear
Clear
30°
Feels Like: 22°
Wind Chill: 22° Ceiling: Unl
Heat Index: 30° Visibility: 10mi
Dew Point: Wind: 8mph
Humidity: 41% Direction: 350° (N)
Pressure: 29.9in Gusts: 0mph
Raw Report DataKBOS 010954Z 35007KT 10SM CLR M01/M13 A2990 RMK AO2 SLP126 T10111128
Traffic Incident Summary
Active as of:
Severity:
Category:
InformationThere was an issue retrieving the traffic information for this location. Please try a different location or try again shortly.
Advertisements
Track Severe Weather on mobile